Norwalk, Connecticut
Current Conditions -  °F | °C
As of 11:08 AM on Wednesday 26 Nov 2014 (Local Time) from KBDR Reporting Station
Moderate Rain Moderate Rain  
Wind Chill: -1°   Ceiling: 700
Heat Index:   Visibility: 2.5mi
Dew Point:   Wind: 8mph
Humidity: 93%   Direction: 10°N
Pressure: 30.13"   Gusts: NA
Location:  41.11°N, 73.41°W
Report Text: KBDR 261608Z 01007KT 2 1/2SM RA BR BKN007 OVC022 03/02 A3013 RMK AO2 VIS 1 3/4 R29 SE P0003 T00280017
Loading
Personal Weather Stations






























Interactive Weather Map New forecast layout! Learn more

10-Day Weather Forecast

Advertisements
Track Severe Weather on mobile